Scotland, Indiana
Current Conditions -  °F | °C
As of 10:55 PM on Friday 24 Oct 2014 (Local Time) from KDCY Reporting Station
Clear Clear  
Wind Chill: 57°   Ceiling: Unl
Heat Index: 57°   Visibility: 10mi
Dew Point: 53°   Wind: 8mph
Humidity: 85%   Direction: 210°SSW
Pressure: 30.04"   Gusts: NA
Location:  38.91°N, 86.9°W
Report Text: KDCY 250255Z AUTO 21007KT 10SM CLR 14/12 A3004 RMK AO2 T01400115
Loading
Personal Weather Stations






























Interactive Weather Map
Tropical Storm Tracking
New forecast layout! Learn more

10-Day Weather Forecast

Advertisements
Track Severe Weather on mobile